createdAt,value
2023-05-23T00:01:39.954Z,38.80
2023-05-23T00:04:08.802Z,36.90
2023-05-23T00:06:38.138Z,39.63
2023-05-23T00:09:05.976Z,38.43
2023-05-23T00:11:33.555Z,41.90
2023-05-23T00:14:04.079Z,40.67
2023-05-23T00:16:32.676Z,38.60
2023-05-23T00:19:01.596Z,39.77
2023-05-23T00:21:30.585Z,41.93
2023-05-23T00:23:58.088Z,40.57
2023-05-23T00:26:25.742Z,40.77
2023-05-23T00:28:55.052Z,43.73
2023-05-23T00:31:22.800Z,42.40
2023-05-23T00:33:50.640Z,45.47
2023-05-23T00:36:18.290Z,42.07
2023-05-23T00:38:49.388Z,45.67
2023-05-23T00:41:18.647Z,43.07
2023-05-23T00:43:46.806Z,45.23
2023-05-23T00:46:15.248Z,43.20
2023-05-23T00:48:43.177Z,44.17
2023-05-23T00:51:10.721Z,46.30
2023-05-23T00:53:38.219Z,47.93
2023-05-23T00:56:05.944Z,43.97
2023-05-23T00:58:34.560Z,46.00
2023-05-23T01:01:02.831Z,43.20
2023-05-23T01:03:30.436Z,46.17
2023-05-23T01:05:58.228Z,46.33
2023-05-23T01:08:26.214Z,45.97
2023-05-23T01:10:53.864Z,42.53
2023-05-23T01:13:22.920Z,41.23
2023-05-23T01:16:00.410Z,41.47
2023-05-23T01:18:32.012Z,40.60
2023-05-23T01:21:03.924Z,43.17
2023-05-23T01:23:38.612Z,35.70
2023-05-23T01:26:14.822Z,37.37
2023-05-23T01:28:43.785Z,38.03
2023-05-23T01:31:12.167Z,36.97
2023-05-23T01:33:41.105Z,34.47
2023-05-23T01:36:08.944Z,34.90
2023-05-23T01:38:37.328Z,34.90
2023-05-23T01:41:05.116Z,32.80
2023-05-23T01:43:32.957Z,33.00
2023-05-23T01:46:01.267Z,32.57
2023-05-23T01:48:29.512Z,31.00
2023-05-23T01:50:58.427Z,31.63
2023-05-23T01:53:26.754Z,34.33
2023-05-23T01:55:55.702Z,31.47
2023-05-23T01:58:23.880Z,32.07
2023-05-23T02:00:51.483Z,29.20
2023-05-23T02:03:19.862Z,29.03
2023-05-23T02:05:47.592Z,27.30
2023-05-23T02:08:16.199Z,28.83
2023-05-23T02:10:43.694Z,31.87
2023-05-23T02:13:12.580Z,28.80
2023-05-23T02:15:40.347Z,30.07
2023-05-23T02:18:08.319Z,27.50
2023-05-23T02:20:38.974Z,29.50
2023-05-23T02:23:07.123Z,31.13
2023-05-23T02:25:34.756Z,32.50
2023-05-23T02:28:02.353Z,31.40
2023-05-23T02:30:29.795Z,30.10
2023-05-23T02:32:58.332Z,29.00
2023-05-23T02:35:25.915Z,31.47
2023-05-23T02:37:53.401Z,31.30
2023-05-23T02:40:21.029Z,30.67
2023-05-23T02:42:48.642Z,35.10
2023-05-23T02:45:16.151Z,32.27
2023-05-23T02:47:43.920Z,32.40
2023-05-23T02:50:11.835Z,33.27
2023-05-23T02:52:39.530Z,34.13
2023-05-23T02:55:08.457Z,36.50
2023-05-23T02:57:36.510Z,38.80
2023-05-23T03:00:05.011Z,36.80
2023-05-23T03:02:32.478Z,38.97
2023-05-23T03:05:00.183Z,39.83
2023-05-23T03:07:28.988Z,39.20
2023-05-23T03:09:57.394Z,39.47
2023-05-23T03:12:25.053Z,36.37
2023-05-23T03:14:52.904Z,39.43
2023-05-23T03:17:21.148Z,40.77
2023-05-23T03:19:49.009Z,39.63
2023-05-23T03:22:16.972Z,39.77
2023-05-23T03:24:44.891Z,38.90
2023-05-23T03:27:13.115Z,41.37
2023-05-23T03:29:41.293Z,40.30
2023-05-23T03:32:09.202Z,39.00
2023-05-23T03:34:37.702Z,40.57
2023-05-23T03:37:05.879Z,35.80
2023-05-23T03:39:33.725Z,35.00
2023-05-23T03:42:02.046Z,35.33
2023-05-23T03:44:29.750Z,35.50
2023-05-23T03:46:57.717Z,36.33
2023-05-23T03:49:25.702Z,36.27
2023-05-23T03:51:53.585Z,35.40
2023-05-23T03:54:21.835Z,34.93
2023-05-23T03:56:49.674Z,35.90
2023-05-23T03:59:18.331Z,36.20
2023-05-23T04:01:46.057Z,34.33
2023-05-23T04:04:14.087Z,33.03
2023-05-23T04:06:41.871Z,32.00
2023-05-23T04:09:10.567Z,30.57
2023-05-23T04:11:38.805Z,28.67
2023-05-23T04:14:06.593Z,29.63
2023-05-23T04:16:37.119Z,27.70
2023-05-23T04:19:05.868Z,28.07
2023-05-23T04:21:34.090Z,27.40
2023-05-23T04:24:02.370Z,26.00
2023-05-23T04:26:29.961Z,24.43
2023-05-23T04:28:57.669Z,25.50
2023-05-23T04:31:25.756Z,25.73
2023-05-23T04:33:54.406Z,25.50
2023-05-23T04:36:24.929Z,27.53
2023-05-23T04:38:52.493Z,24.33
2023-05-23T04:41:21.764Z,22.60
2023-05-23T04:43:51.042Z,22.30
2023-05-23T04:46:20.189Z,22.60
2023-05-23T04:48:48.677Z,23.10
2023-05-23T04:51:16.228Z,20.90
2023-05-23T04:53:44.545Z,24.30
2023-05-23T04:56:12.352Z,22.70
2023-05-23T04:58:41.407Z,22.53
2023-05-23T05:01:09.827Z,22.17
2023-05-23T05:03:37.785Z,22.70
2023-05-23T05:06:06.035Z,22.37
2023-05-23T05:08:33.747Z,23.13
2023-05-23T05:11:01.393Z,23.43
2023-05-23T05:13:28.929Z,23.73
2023-05-23T05:15:57.438Z,21.97
2023-05-23T05:18:26.560Z,21.90
2023-05-23T05:20:54.409Z,25.03
2023-05-23T05:23:24.529Z,24.27
2023-05-23T05:25:52.161Z,21.07
2023-05-23T05:28:21.302Z,22.17
2023-05-23T05:30:50.568Z,19.97
2023-05-23T05:33:18.990Z,22.57
2023-05-23T05:35:46.534Z,19.67
2023-05-23T05:38:14.047Z,20.20
2023-05-23T05:40:41.744Z,20.93
2023-05-23T05:43:10.271Z,21.87
2023-05-23T05:45:37.871Z,19.60
2023-05-23T05:48:06.241Z,20.50
2023-05-23T05:50:33.984Z,21.47
2023-05-23T05:53:01.746Z,21.73
2023-05-23T05:55:30.403Z,19.10
2023-05-23T05:57:57.819Z,18.83
2023-05-23T06:00:25.575Z,19.50
2023-05-23T06:02:55.915Z,17.87
2023-05-23T06:05:23.922Z,19.53
2023-05-23T06:07:51.810Z,17.40
2023-05-23T06:10:19.551Z,17.37
2023-05-23T06:12:46.959Z,18.53
2023-05-23T06:15:15.652Z,18.03
2023-05-23T06:17:44.653Z,17.13
2023-05-23T06:20:12.739Z,16.37
2023-05-23T06:22:40.347Z,17.03
2023-05-23T06:25:07.977Z,17.40
2023-05-23T06:27:36.551Z,17.07
2023-05-23T06:30:05.465Z,16.80
2023-05-23T06:32:32.980Z,14.53
2023-05-23T06:35:00.611Z,13.10
2023-05-23T06:37:28.193Z,13.90
2023-05-23T06:39:55.703Z,14.30
2023-05-23T06:42:24.062Z,14.07
2023-05-23T06:44:51.660Z,14.30
2023-05-23T06:47:19.049Z,12.47
2023-05-23T06:49:46.477Z,12.17
2023-05-23T06:52:13.980Z,12.53
2023-05-23T06:54:41.722Z,11.60
2023-05-23T06:57:09.138Z,12.77
2023-05-23T06:59:36.575Z,11.83
2023-05-23T07:02:03.997Z,11.40
2023-05-23T07:04:31.798Z,11.93
2023-05-23T07:06:59.226Z,10.40
2023-05-23T07:09:27.089Z,10.30
2023-05-23T07:11:54.807Z,9.50
2023-05-23T07:14:22.252Z,9.27
2023-05-23T07:16:49.729Z,8.70
2023-05-23T07:19:17.267Z,9.90
2023-05-23T07:21:44.638Z,10.50
2023-05-23T07:24:12.015Z,9.50
2023-05-23T07:26:39.478Z,11.17
2023-05-23T07:29:07.007Z,10.50
2023-05-23T07:31:34.558Z,11.00
2023-05-23T07:34:02.508Z,11.00
2023-05-23T07:36:31.584Z,10.43
2023-05-23T07:38:59.416Z,10.73
2023-05-23T07:41:26.881Z,9.60
2023-05-23T07:43:54.325Z,10.10
2023-05-23T07:46:22.867Z,10.03
2023-05-23T07:48:50.514Z,10.20
2023-05-23T07:51:19.607Z,10.10
2023-05-23T07:53:47.469Z,10.40
2023-05-23T07:56:14.900Z,10.83
2023-05-23T07:58:42.258Z,10.27
2023-05-23T08:01:09.709Z,10.33
2023-05-23T08:03:37.918Z,9.80
2023-05-23T08:06:07.004Z,10.07
2023-05-23T08:08:34.429Z,9.60
2023-05-23T08:11:01.854Z,9.90
2023-05-23T08:13:29.301Z,9.80
2023-05-23T08:15:56.734Z,8.77
2023-05-23T08:18:24.246Z,9.40
2023-05-23T08:20:52.375Z,9.23
2023-05-23T08:23:19.798Z,8.20
2023-05-23T08:25:47.231Z,8.50
2023-05-23T08:28:14.650Z,8.43
2023-05-23T08:30:42.500Z,8.50
2023-05-23T08:33:10.814Z,8.27
2023-05-23T08:35:38.310Z,8.33
2023-05-23T08:38:07.470Z,8.47
2023-05-23T08:40:34.973Z,8.50
2023-05-23T08:43:02.696Z,8.47
2023-05-23T08:45:30.398Z,7.63
2023-05-23T08:47:59.356Z,8.70
2023-05-23T08:50:28.328Z,8.43
2023-05-23T08:52:56.577Z,8.40
2023-05-23T08:55:28.702Z,8.20
2023-05-23T08:57:57.567Z,8.03
2023-05-23T09:00:25.857Z,8.83
2023-05-23T09:02:54.281Z,9.93
2023-05-23T09:05:22.457Z,11.27
2023-05-23T09:07:51.905Z,10.27
2023-05-23T09:10:22.565Z,10.07
2023-05-23T09:12:50.268Z,11.90
2023-05-23T09:15:17.745Z,10.87
2023-05-23T09:17:45.532Z,10.73
2023-05-23T09:20:14.420Z,10.23
2023-05-23T09:22:42.512Z,9.80
2023-05-23T09:25:09.944Z,12.00
2023-05-23T09:27:37.792Z,11.23
2023-05-23T09:30:09.039Z,12.63
2023-05-23T09:32:36.586Z,12.77
2023-05-23T09:35:04.906Z,12.80
2023-05-23T09:37:33.732Z,12.90
2023-05-23T09:40:02.137Z,13.43
2023-05-23T09:42:33.942Z,13.27
2023-05-23T09:45:04.058Z,12.90
2023-05-23T09:47:30.739Z,15.20
2023-05-23T09:49:58.143Z,13.63
2023-05-23T09:52:26.027Z,13.40
2023-05-23T09:54:55.509Z,12.23
2023-05-23T09:57:23.343Z,12.73
2023-05-23T09:59:54.499Z,13.13
2023-05-23T10:02:40.182Z,12.37
2023-05-23T10:05:09.137Z,14.27
2023-05-23T10:07:36.622Z,12.63
2023-05-23T10:10:05.039Z,12.00
2023-05-23T10:12:43.747Z,12.67
2023-05-23T10:15:12.573Z,12.97
2023-05-23T10:17:44.541Z,12.57
2023-05-23T10:20:12.703Z,12.70
2023-05-23T10:25:15.938Z,13.50
2023-05-23T10:27:44.674Z,14.43
2023-05-23T10:30:12.584Z,12.80
2023-05-23T10:32:40.420Z,12.60
2023-05-23T10:35:15.580Z,11.47
2023-05-23T10:38:01.473Z,11.80
2023-05-23T10:40:30.475Z,11.00
2023-05-23T10:43:08.736Z,9.93
2023-05-23T10:45:42.573Z,9.73
2023-05-23T10:48:28.162Z,10.67
2023-05-23T10:51:08.089Z,10.80
2023-05-23T10:53:37.051Z,10.10
2023-05-23T10:56:08.220Z,9.03
2023-05-23T10:58:36.718Z,8.13
2023-05-23T11:01:06.180Z,7.10
2023-05-23T11:03:54.037Z,7.50
2023-05-23T11:06:35.038Z,6.77
2023-05-23T11:09:06.330Z,7.20
2023-05-23T11:11:53.247Z,7.30
2023-05-23T11:14:22.213Z,7.30
2023-05-23T11:16:49.922Z,7.33
2023-05-23T11:19:31.002Z,8.27
2023-05-23T11:22:01.211Z,8.53
2023-05-23T11:24:46.444Z,9.03
2023-05-23T11:27:13.878Z,8.70
2023-05-23T11:29:41.722Z,8.23
2023-05-23T11:32:16.075Z,9.00
2023-05-23T11:34:40.575Z,9.10
2023-05-23T11:37:08.365Z,9.00
2023-05-23T11:39:35.747Z,9.20
2023-05-23T11:42:04.865Z,7.83
2023-05-23T11:44:32.281Z,9.27
2023-05-23T11:47:01.718Z,7.90
2023-05-23T11:49:32.528Z,8.73
2023-05-23T11:52:00.355Z,7.70
2023-05-23T11:54:27.710Z,8.13
2023-05-23T11:56:55.906Z,8.00
2023-05-23T11:59:25.855Z,7.50
2023-05-23T12:01:53.782Z,7.10
2023-05-23T12:04:21.359Z,7.03
2023-05-23T12:06:50.037Z,7.00
2023-05-23T12:09:17.446Z,5.70
2023-05-23T12:11:45.933Z,6.43
2023-05-23T12:14:14.866Z,6.40
2023-05-23T12:16:46.628Z,6.93
2023-05-23T12:19:14.936Z,6.90
2023-05-23T12:21:42.985Z,7.27
2023-05-23T12:24:20.007Z,6.10
2023-05-23T12:26:55.473Z,6.60
2023-05-23T12:29:24.784Z,7.03
2023-05-23T12:31:52.354Z,6.83
2023-05-23T12:34:20.859Z,8.30
2023-05-23T12:36:50.054Z,7.90
2023-05-23T12:39:19.622Z,8.70
2023-05-23T12:41:47.066Z,7.53
2023-05-23T12:44:16.840Z,9.20
2023-05-23T12:46:45.204Z,8.70
2023-05-23T12:49:12.660Z,8.87
2023-05-23T12:51:40.841Z,9.53
2023-05-23T12:54:09.337Z,9.57
2023-05-23T12:56:36.773Z,8.70
2023-05-23T12:59:04.286Z,8.60
2023-05-23T13:01:33.675Z,8.83
2023-05-23T13:04:04.028Z,8.90
2023-05-23T13:06:31.512Z,8.70
2023-05-23T13:08:58.906Z,9.03
2023-05-23T13:11:26.898Z,8.60
2023-05-23T13:13:54.312Z,8.23
2023-05-23T13:16:21.768Z,9.03
2023-05-23T13:18:49.261Z,8.80
2023-05-23T13:21:16.982Z,8.97
2023-05-23T13:23:44.671Z,8.10
2023-05-23T13:26:12.095Z,9.27
2023-05-23T13:28:39.535Z,10.70
2023-05-23T13:31:06.997Z,11.37
2023-05-23T13:33:34.758Z,12.33
2023-05-23T13:36:02.236Z,12.73
2023-05-23T13:38:31.409Z,12.17
2023-05-23T13:40:58.829Z,12.63
2023-05-23T13:43:26.275Z,13.50
2023-05-23T13:45:53.698Z,12.00
2023-05-23T13:48:21.455Z,12.93
2023-05-23T13:50:48.929Z,12.77
2023-05-23T13:53:16.955Z,13.03
2023-05-23T13:55:47.545Z,14.47
2023-05-23T13:58:14.941Z,14.87
2023-05-23T14:00:43.027Z,14.23
2023-05-23T14:03:10.744Z,16.37
2023-05-23T14:05:38.542Z,16.70
2023-05-23T14:08:06.758Z,18.80
2023-05-23T14:10:34.208Z,19.43
2023-05-23T14:13:01.626Z,18.33
2023-05-23T14:15:29.081Z,17.83
2023-05-23T14:17:56.877Z,18.93
2023-05-23T14:20:24.749Z,18.40
2023-05-23T14:22:52.180Z,16.47
2023-05-23T14:25:19.607Z,16.10
2023-05-23T14:27:47.045Z,15.70
2023-05-23T14:30:14.523Z,13.60
2023-05-23T14:32:41.961Z,13.60
2023-05-23T14:35:10.928Z,11.10
2023-05-23T14:37:38.984Z,11.97
2023-05-23T14:40:06.893Z,11.90
2023-05-23T14:42:34.302Z,10.03
2023-05-23T14:45:01.834Z,9.57
2023-05-23T14:47:29.213Z,9.10
2023-05-23T14:49:57.045Z,8.53
2023-05-23T14:52:24.488Z,8.43
2023-05-23T14:54:51.910Z,8.00
2023-05-23T14:57:19.311Z,7.47
2023-05-23T14:59:47.182Z,9.23
2023-05-23T15:02:14.706Z,8.90
2023-05-23T15:04:42.502Z,8.10
2023-05-23T15:07:09.863Z,8.20
2023-05-23T15:09:37.376Z,8.40
2023-05-23T15:12:06.633Z,7.53
2023-05-23T15:14:34.150Z,8.43
2023-05-23T15:17:03.825Z,8.60
2023-05-23T15:19:31.294Z,8.30
2023-05-23T15:21:58.712Z,8.23
2023-05-23T15:24:28.235Z,8.43
2023-05-23T15:26:56.844Z,7.73
2023-05-23T15:29:25.050Z,8.00
2023-05-23T15:31:53.335Z,8.07
2023-05-23T15:34:20.897Z,8.20
2023-05-23T15:36:48.339Z,8.23
2023-05-23T15:39:16.725Z,8.03
2023-05-23T15:41:44.228Z,8.43
2023-05-23T15:44:14.101Z,7.40
2023-05-23T15:46:40.730Z,8.03
2023-05-23T15:49:21.645Z,8.50
2023-05-23T15:51:37.198Z,8.23
2023-05-23T15:54:04.614Z,8.07
2023-05-23T15:56:32.053Z,7.30
2023-05-23T15:58:59.549Z,7.80
2023-05-23T16:01:26.958Z,7.70
2023-05-23T16:03:54.402Z,8.00
2023-05-23T16:06:22.429Z,8.07
2023-05-23T16:08:49.835Z,7.80
2023-05-23T16:11:17.396Z,8.30
2023-05-23T16:13:44.820Z,6.83
2023-05-23T16:16:12.309Z,7.70
2023-05-23T16:18:39.685Z,6.47
2023-05-23T16:21:07.095Z,6.50
2023-05-23T16:23:34.630Z,6.53
2023-05-23T16:26:02.020Z,6.57
2023-05-23T16:28:29.434Z,6.43
2023-05-23T16:30:57.237Z,6.37
2023-05-23T16:33:24.665Z,6.03
2023-05-23T16:35:52.098Z,6.00
2023-05-23T16:38:19.786Z,6.23
2023-05-23T16:40:47.132Z,6.23
2023-05-23T16:43:14.568Z,5.53
2023-05-23T16:45:42.295Z,6.87
2023-05-23T16:48:09.966Z,6.20
2023-05-23T16:50:37.433Z,6.10
2023-05-23T16:53:05.259Z,6.93
2023-05-23T16:55:32.680Z,5.20
2023-05-23T16:58:00.136Z,7.07
2023-05-23T17:00:27.547Z,6.27
2023-05-23T17:02:55.073Z,6.70
2023-05-23T17:05:22.598Z,6.20
2023-05-23T17:07:50.679Z,6.63
2023-05-23T17:10:20.183Z,6.00
2023-05-23T17:12:47.148Z,6.50
2023-05-23T17:15:14.575Z,5.50
2023-05-23T17:17:42.099Z,5.80
2023-05-23T17:20:10.130Z,6.10
2023-05-23T17:22:37.902Z,6.60
2023-05-23T17:25:06.155Z,5.60
2023-05-23T17:27:33.588Z,6.20
2023-05-23T17:30:02.662Z,6.90
2023-05-23T17:32:30.094Z,6.40
2023-05-23T17:34:57.503Z,5.60
2023-05-23T17:37:26.596Z,6.03
2023-05-23T17:39:56.760Z,5.90
2023-05-23T17:42:23.081Z,6.03
2023-05-23T17:44:50.521Z,6.50
2023-05-23T17:47:18.659Z,6.07
2023-05-23T17:49:46.100Z,5.50
2023-05-23T17:52:14.713Z,5.90
2023-05-23T17:54:42.305Z,6.10
2023-05-23T17:57:09.709Z,5.60
2023-05-23T17:59:37.200Z,5.37
2023-05-23T18:02:04.638Z,5.77
2023-05-23T18:04:32.082Z,5.70
2023-05-23T18:06:59.575Z,6.10
2023-05-23T18:09:27.350Z,6.30
2023-05-23T18:11:54.999Z,5.90
2023-05-23T18:14:22.398Z,5.90
2023-05-23T18:16:49.822Z,5.93
2023-05-23T18:19:17.786Z,6.27
2023-05-23T18:21:45.280Z,5.70
2023-05-23T18:24:13.207Z,5.90
2023-05-23T18:26:42.303Z,5.70
2023-05-23T18:29:10.075Z,5.60
2023-05-23T18:31:37.935Z,6.10
2023-05-23T18:34:05.885Z,6.43
2023-05-23T18:36:33.343Z,5.10
2023-05-23T18:39:00.833Z,6.30
2023-05-23T18:41:28.193Z,6.07
2023-05-23T18:43:55.813Z,5.50
2023-05-23T18:46:24.915Z,6.87
2023-05-23T18:48:53.394Z,6.47
2023-05-23T18:51:21.235Z,6.80
2023-05-23T18:53:48.675Z,6.30
2023-05-23T18:56:16.277Z,7.60
2023-05-23T18:58:46.626Z,6.87
2023-05-23T19:01:13.199Z,7.20
2023-05-23T19:03:41.270Z,6.63
2023-05-23T19:06:08.816Z,6.83
2023-05-23T19:08:36.245Z,7.37
2023-05-23T19:11:04.729Z,6.80
2023-05-23T19:13:32.701Z,6.30
2023-05-23T19:16:00.171Z,7.00
2023-05-23T19:18:28.540Z,6.93
2023-05-23T19:20:56.346Z,6.70
2023-05-23T19:23:23.924Z,7.20
2023-05-23T19:25:51.815Z,6.80
2023-05-23T19:28:19.291Z,6.70
2023-05-23T19:30:47.238Z,6.50
2023-05-23T19:33:15.669Z,6.23
2023-05-23T19:35:44.095Z,6.80
2023-05-23T19:38:11.707Z,7.20
2023-05-23T19:40:39.283Z,6.30
2023-05-23T19:43:06.964Z,6.40
2023-05-23T19:45:35.041Z,5.83
2023-05-23T19:48:02.496Z,6.73
2023-05-23T19:50:29.902Z,6.37
2023-05-23T19:52:57.324Z,6.23
2023-05-23T19:55:24.820Z,7.27
2023-05-23T19:57:52.625Z,6.47
2023-05-23T20:00:20.476Z,6.20
2023-05-23T20:02:47.960Z,6.70
2023-05-23T20:05:16.179Z,6.97
2023-05-23T20:07:43.619Z,6.30
2023-05-23T20:10:11.216Z,7.07
2023-05-23T20:12:38.656Z,6.27
2023-05-23T20:15:06.597Z,5.77
2023-05-23T20:17:34.058Z,6.60
2023-05-23T20:20:02.342Z,6.30
2023-05-23T20:22:29.746Z,6.67
2023-05-23T20:24:57.165Z,6.40
2023-05-23T20:27:24.596Z,6.57
2023-05-23T20:29:52.030Z,6.10
2023-05-23T20:32:19.443Z,5.90
2023-05-23T20:34:46.883Z,5.27
2023-05-23T20:37:14.470Z,5.73
2023-05-23T20:39:42.264Z,5.87
2023-05-23T20:42:15.266Z,5.67
2023-05-23T20:44:42.766Z,6.20
2023-05-23T20:47:13.086Z,4.60
2023-05-23T20:49:39.359Z,5.17
2023-05-23T20:52:06.789Z,5.03
2023-05-23T20:54:35.649Z,5.20
2023-05-23T20:57:03.645Z,4.73
2023-05-23T20:59:31.066Z,4.40
2023-05-23T21:01:58.507Z,4.27
2023-05-23T21:04:26.423Z,4.90
2023-05-23T21:06:54.261Z,5.10
2023-05-23T21:09:21.707Z,4.50
2023-05-23T21:11:49.144Z,4.50
2023-05-23T21:14:16.559Z,4.40
2023-05-23T21:16:44.389Z,4.93
2023-05-23T21:19:11.776Z,4.60
2023-05-23T21:21:40.198Z,5.07
2023-05-23T21:24:09.380Z,4.37
2023-05-23T21:26:36.773Z,4.57
2023-05-23T21:29:04.206Z,5.03
2023-05-23T21:31:41.082Z,5.30
2023-05-23T21:34:11.014Z,4.97
2023-05-23T21:36:30.060Z,4.40
2023-05-23T21:38:57.498Z,5.07
2023-05-23T21:41:25.877Z,5.20
2023-05-23T21:43:53.727Z,5.10
2023-05-23T21:46:21.204Z,4.80
2023-05-23T21:48:48.583Z,4.83
2023-05-23T21:51:16.021Z,5.17
2023-05-23T21:53:43.447Z,4.20
2023-05-23T21:56:10.899Z,5.37
2023-05-23T21:58:38.332Z,4.40
2023-05-23T22:01:05.822Z,4.73
2023-05-23T22:03:33.353Z,4.80
2023-05-23T22:06:03.922Z,4.90
2023-05-23T22:08:32.922Z,4.33
2023-05-23T22:11:01.197Z,4.60
2023-05-23T22:13:28.620Z,4.43
2023-05-23T22:15:56.094Z,4.80
2023-05-23T22:18:25.112Z,6.50
2023-05-23T22:20:53.022Z,5.00
2023-05-23T22:23:21.150Z,5.00
2023-05-23T22:25:48.864Z,4.90
2023-05-23T22:28:17.056Z,5.00
2023-05-23T22:30:44.648Z,5.70
2023-05-23T22:33:15.377Z,5.60
2023-05-23T22:35:43.170Z,5.93
2023-05-23T22:38:11.041Z,5.60
2023-05-23T22:40:38.464Z,5.03
2023-05-23T22:43:06.174Z,5.70
2023-05-23T22:45:35.615Z,5.50
2023-05-23T22:48:03.096Z,6.07
2023-05-23T22:50:30.463Z,5.07
2023-05-23T22:52:58.394Z,5.37
2023-05-23T22:55:25.792Z,5.83
2023-05-23T22:57:53.215Z,5.67
2023-05-23T23:00:20.710Z,6.33
2023-05-23T23:02:48.210Z,5.77
2023-05-23T23:05:15.684Z,5.60
2023-05-23T23:07:43.099Z,5.70
2023-05-23T23:10:10.684Z,5.60
2023-05-23T23:12:38.082Z,5.90
2023-05-23T23:15:05.899Z,5.70
2023-05-23T23:17:33.479Z,6.50
2023-05-23T23:20:01.417Z,6.03
2023-05-23T23:22:28.872Z,5.37
2023-05-23T23:24:56.297Z,6.37
2023-05-23T23:27:25.691Z,6.17
2023-05-23T23:29:53.210Z,6.10
2023-05-23T23:32:20.639Z,5.60
2023-05-23T23:34:48.064Z,5.47
2023-05-23T23:37:15.496Z,6.37
2023-05-23T23:39:43.412Z,5.20
2023-05-23T23:42:11.148Z,6.37
2023-05-23T23:44:38.580Z,6.33
2023-05-23T23:47:06.027Z,5.53
2023-05-23T23:49:33.443Z,5.50
2023-05-23T23:52:01.049Z,5.60
2023-05-23T23:54:28.474Z,5.93
2023-05-23T23:56:55.898Z,6.30
2023-05-23T23:59:23.315Z,6.50
